createdAt,value
2022-09-18T00:02:07.017Z,101235.66
2022-09-18T00:04:36.311Z,101238.22
2022-09-18T00:07:04.526Z,101247.13
2022-09-18T00:09:35.611Z,101238.25
2022-09-18T00:12:05.665Z,101249.19
2022-09-18T00:14:35.378Z,101266.63
2022-09-18T00:17:08.878Z,101268.66
2022-09-18T00:19:38.205Z,101273.09
2022-09-18T00:22:08.400Z,101261.81
2022-09-18T00:24:39.275Z,101252.06
2022-09-18T00:27:08.251Z,101249.00
2022-09-18T00:29:37.877Z,101259.75
2022-09-18T00:32:07.065Z,101247.47
2022-09-18T00:34:36.251Z,101247.97
2022-09-18T00:37:05.128Z,101245.25
2022-09-18T00:39:33.759Z,101248.69
2022-09-18T00:42:04.497Z,101247.47
2022-09-18T00:44:40.010Z,101245.91
2022-09-18T00:47:24.215Z,101252.94
2022-09-18T00:49:59.091Z,101260.28
2022-09-18T00:52:31.160Z,101281.47
2022-09-18T00:55:07.484Z,101273.28
2022-09-18T00:57:42.615Z,101263.88
2022-09-18T01:00:14.462Z,101260.13
2022-09-18T01:02:44.542Z,101260.84
2022-09-18T01:05:14.792Z,101256.03
2022-09-18T01:07:59.911Z,101255.16
2022-09-18T01:10:42.097Z,101250.72
2022-09-18T01:13:20.544Z,101249.69
2022-09-18T01:15:52.585Z,101249.16
2022-09-18T01:18:27.819Z,101254.78
2022-09-18T01:21:07.259Z,101261.81
2022-09-18T01:24:19.866Z,101251.69
2022-09-18T01:26:55.674Z,101254.63
2022-09-18T01:29:36.138Z,101251.53
2022-09-18T01:32:09.542Z,101253.63
2022-09-18T01:34:45.151Z,101259.94
2022-09-18T01:37:22.081Z,101266.44
2022-09-18T01:39:55.804Z,101257.00
2022-09-18T01:42:26.602Z,101254.28
2022-09-18T01:45:02.084Z,101251.53
2022-09-18T01:47:37.502Z,101254.28
2022-09-18T01:50:08.293Z,101253.97
2022-09-18T01:52:40.364Z,101247.28
2022-09-18T01:55:13.772Z,101241.81
2022-09-18T01:57:51.109Z,101237.53
2022-09-18T02:00:22.804Z,101238.38
2022-09-18T02:02:55.980Z,101238.56
2022-09-18T02:05:30.483Z,101235.97
2022-09-18T02:08:10.215Z,101234.44
2022-09-18T02:10:43.629Z,101229.66
2022-09-18T02:13:17.447Z,101230.16
2022-09-18T02:15:50.567Z,101226.41
2022-09-18T02:18:28.130Z,101220.78
2022-09-18T02:20:58.833Z,101226.91
2022-09-18T02:23:29.954Z,101220.94
2022-09-18T02:26:01.501Z,101213.06
2022-09-18T02:28:32.264Z,101211.91
2022-09-18T02:31:02.808Z,101204.88
2022-09-18T02:33:36.594Z,101208.31
2022-09-18T02:36:38.717Z,101198.56
2022-09-18T02:39:22.218Z,101208.81
2022-09-18T02:41:58.306Z,101204.75
2022-09-18T02:44:39.978Z,101211.06
2022-09-18T02:47:21.127Z,101200.63
2022-09-18T02:49:57.830Z,101200.94
2022-09-18T02:52:29.363Z,101200.78
2022-09-18T02:55:05.634Z,101201.78
2022-09-18T02:57:38.401Z,101201.31
2022-09-18T03:00:15.372Z,101212.97
2022-09-18T03:02:45.013Z,101220.13
2022-09-18T03:05:15.147Z,101234.47
2022-09-18T03:07:54.281Z,101248.13
2022-09-18T03:10:22.233Z,101255.84
2022-09-18T03:12:50.384Z,101250.00
2022-09-18T03:15:18.774Z,101236.72
2022-09-18T03:17:48.146Z,101216.56
2022-09-18T03:20:18.834Z,101221.53
2022-09-18T03:22:46.978Z,101213.81
2022-09-18T03:25:15.444Z,101211.75
2022-09-18T03:27:43.729Z,101208.34
2022-09-18T03:30:16.654Z,101200.81
2022-09-18T03:32:44.660Z,101201.53
2022-09-18T03:35:14.393Z,101194.00
2022-09-18T03:37:42.859Z,101189.56
2022-09-18T03:40:14.249Z,101199.31
2022-09-18T03:42:44.273Z,101204.09
2022-09-18T03:45:12.975Z,101202.72
2022-09-18T03:47:41.365Z,101210.91
2022-09-18T03:50:11.200Z,101192.28
2022-09-18T03:52:41.196Z,101193.81
2022-09-18T03:55:26.632Z,101192.78
2022-09-18T03:58:13.839Z,101191.59
2022-09-18T04:00:50.644Z,101174.53
2022-09-18T04:03:28.814Z,101179.97
2022-09-18T04:06:17.215Z,101178.28
2022-09-18T04:09:14.272Z,101175.06
2022-09-18T04:11:48.595Z,101173.16
2022-09-18T04:14:16.595Z,101178.97
2022-09-18T04:16:49.170Z,101175.72
2022-09-18T04:19:17.123Z,101172.16
2022-09-18T04:21:46.107Z,101164.78
2022-09-18T04:24:17.070Z,101175.72
2022-09-18T04:26:47.281Z,101169.56
2022-09-18T04:29:16.336Z,101165.97
2022-09-18T04:31:45.300Z,101171.81
2022-09-18T04:34:16.160Z,101166.34
2022-09-18T04:36:44.606Z,101168.22
2022-09-18T04:39:15.513Z,101173.34
2022-09-18T04:41:46.452Z,101171.63
2022-09-18T04:44:15.817Z,101168.22
2022-09-18T04:46:45.355Z,101169.41
2022-09-18T04:49:17.325Z,101174.00
2022-09-18T04:51:46.473Z,101167.84
2022-09-18T04:54:17.017Z,101166.50
2022-09-18T04:56:47.309Z,101163.44
2022-09-18T04:59:16.218Z,101165.47
2022-09-18T05:01:47.355Z,101164.63
2022-09-18T05:04:16.411Z,101164.09
2022-09-18T05:06:59.294Z,101167.03
2022-09-18T05:09:27.259Z,101177.78
2022-09-18T05:11:57.390Z,101201.34
2022-09-18T05:14:25.893Z,101194.69
2022-09-18T05:16:59.232Z,101191.91
2022-09-18T05:19:31.321Z,101177.06
2022-09-18T05:22:14.544Z,101175.38
2022-09-18T05:24:49.145Z,101167.66
2022-09-18T05:27:18.443Z,101160.50
2022-09-18T05:29:46.658Z,101159.16
2022-09-18T05:32:20.299Z,101156.78
2022-09-18T05:34:50.146Z,101159.16
2022-09-18T05:37:19.399Z,101160.00
2022-09-18T05:39:52.115Z,101164.63
2022-09-18T05:42:21.519Z,101165.81
2022-09-18T05:44:50.542Z,101174.03
2022-09-18T05:47:23.726Z,101180.66
2022-09-18T05:49:51.829Z,101186.66
2022-09-18T05:52:24.195Z,101195.91
2022-09-18T05:54:54.113Z,101195.38
2022-09-18T05:57:23.751Z,101200.66
2022-09-18T05:59:52.424Z,101202.53
2022-09-18T06:02:21.189Z,101202.56
2022-09-18T06:05:01.430Z,101213.31
2022-09-18T06:07:30.000Z,101205.78
2022-09-18T06:09:59.470Z,101198.25
2022-09-18T06:12:30.009Z,101203.91
2022-09-18T06:14:58.219Z,101196.91
2022-09-18T06:17:28.463Z,101186.66
2022-09-18T06:20:03.111Z,101187.84
2022-09-18T06:22:32.560Z,101180.88
2022-09-18T06:25:01.911Z,101176.06
2022-09-18T06:27:36.755Z,101166.84
2022-09-18T06:30:08.486Z,101166.84
2022-09-18T06:32:38.406Z,101165.31
2022-09-18T06:35:08.773Z,101176.75
2022-09-18T06:37:37.176Z,101165.63
2022-09-18T06:40:13.190Z,101170.75
2022-09-18T06:42:59.686Z,101170.91
2022-09-18T06:45:39.747Z,101169.91
2022-09-18T06:48:08.629Z,101174.50
2022-09-18T06:50:40.898Z,101162.06
2022-09-18T06:53:12.685Z,101161.72
2022-09-18T06:55:51.276Z,101167.19
2022-09-18T06:58:23.989Z,101174.53
2022-09-18T07:00:54.123Z,101180.31
2022-09-18T07:03:30.213Z,101181.69
2022-09-18T07:06:34.854Z,101192.44
2022-09-18T07:09:03.065Z,101189.22
2022-09-18T07:11:49.069Z,101170.94
2022-09-18T07:14:19.337Z,101176.41
2022-09-18T07:16:53.241Z,101179.81
2022-09-18T07:19:21.711Z,101169.25
2022-09-18T07:21:54.131Z,101172.13
2022-09-18T07:24:22.694Z,101176.03
2022-09-18T07:26:50.750Z,101171.59
2022-09-18T07:29:22.901Z,101173.66
2022-09-18T07:31:53.205Z,101173.28
2022-09-18T07:34:22.119Z,101183.53
2022-09-18T07:36:52.747Z,101192.56
2022-09-18T07:39:26.046Z,101187.50
2022-09-18T07:42:14.290Z,101187.00
2022-09-18T07:44:51.079Z,101190.41
2022-09-18T07:47:19.371Z,101189.41
2022-09-18T07:49:47.934Z,101196.03
2022-09-18T07:52:16.533Z,101188.00
2022-09-18T07:54:49.654Z,101185.63
2022-09-18T07:57:28.807Z,101185.97
2022-09-18T08:00:17.163Z,101175.19
2022-09-18T08:02:45.284Z,101179.97
2022-09-18T08:05:24.921Z,101173.19
2022-09-18T08:08:05.571Z,101166.66
2022-09-18T08:10:52.232Z,101162.91
2022-09-18T08:13:55.569Z,101165.81
2022-09-18T08:16:38.672Z,101166.00
2022-09-18T08:19:26.090Z,101165.81
2022-09-18T08:22:02.872Z,101162.41
2022-09-18T08:24:33.158Z,101160.19
2022-09-18T08:27:03.540Z,101172.50
2022-09-18T08:29:34.165Z,101176.44
2022-09-18T08:32:10.188Z,101183.44
2022-09-18T08:34:41.871Z,101185.44
2022-09-18T08:37:16.559Z,101187.16
2022-09-18T08:40:09.852Z,101189.91
2022-09-18T08:43:02.400Z,101182.53
2022-09-18T08:45:53.623Z,101181.50
2022-09-18T08:48:28.869Z,101175.69
2022-09-18T08:51:06.455Z,101174.34
2022-09-18T08:53:41.597Z,101174.50
2022-09-18T08:56:48.536Z,101172.63
2022-09-18T08:59:40.412Z,101175.56
2022-09-18T09:02:32.227Z,101189.38
2022-09-18T09:05:07.526Z,101178.44
2022-09-18T09:08:04.793Z,101184.94
2022-09-18T09:10:44.328Z,101186.13
2022-09-18T09:13:44.884Z,101186.97
2022-09-18T09:16:17.618Z,101185.25
2022-09-18T09:19:00.295Z,101194.00
2022-09-18T09:21:47.601Z,101185.16
2022-09-18T09:24:32.333Z,101186.69
2022-09-18T09:27:19.332Z,101183.38
2022-09-18T09:30:17.003Z,101183.63
2022-09-18T09:33:24.510Z,101184.44
2022-09-18T09:36:20.173Z,101197.22
2022-09-18T09:38:58.000Z,101194.34
2022-09-18T09:41:36.358Z,101192.75
2022-09-18T09:44:32.344Z,101181.81
2022-09-18T09:47:18.003Z,101195.13
2022-09-18T09:49:58.398Z,101183.88
2022-09-18T09:52:29.996Z,101195.47
2022-09-18T09:55:23.393Z,101186.13
2022-09-18T09:58:12.969Z,101179.66
2022-09-18T10:00:55.229Z,101177.94
2022-09-18T10:03:36.934Z,101181.69
2022-09-18T10:06:23.775Z,101186.47
2022-09-18T10:09:03.209Z,101179.47
2022-09-18T10:11:39.253Z,101187.16
2022-09-18T10:14:14.820Z,101187.31
2022-09-18T10:16:49.717Z,101191.09
2022-09-18T10:19:22.525Z,101186.13
2022-09-18T10:21:55.892Z,101190.09
2022-09-18T10:24:34.109Z,101197.25
2022-09-18T10:27:12.793Z,101199.47
2022-09-18T10:29:44.042Z,101185.13
2022-09-18T10:32:34.779Z,101192.63
2022-09-18T10:35:45.181Z,101192.13
2022-09-18T10:38:31.968Z,101210.22
2022-09-18T10:41:28.712Z,101206.28
2022-09-18T10:44:08.125Z,101191.25
2022-09-18T10:46:53.643Z,101194.31
2022-09-18T10:49:28.235Z,101182.84
2022-09-18T10:52:24.772Z,101179.06
2022-09-18T10:55:12.708Z,101177.72
2022-09-18T10:57:45.631Z,101174.13
2022-09-18T11:00:51.269Z,101177.34
2022-09-18T11:03:34.294Z,101179.03
2022-09-18T11:06:04.921Z,101179.38
2022-09-18T11:08:38.525Z,101176.13
2022-09-18T11:11:12.528Z,101180.41
2022-09-18T11:13:45.850Z,101182.41
2022-09-18T11:16:27.782Z,101185.66
2022-09-18T11:19:17.313Z,101171.97
2022-09-18T11:21:51.188Z,101173.16
2022-09-18T11:24:26.487Z,101176.53
2022-09-18T11:27:05.786Z,101165.72
2022-09-18T11:29:40.287Z,101170.13
2022-09-18T11:32:21.831Z,101166.91
2022-09-18T11:34:54.172Z,101166.75
2022-09-18T11:37:33.115Z,101155.03
2022-09-18T11:40:08.352Z,101156.78
2022-09-18T11:42:45.366Z,101155.84
2022-09-18T11:45:47.768Z,101156.03
2022-09-18T11:48:29.798Z,101159.78
2022-09-18T11:51:04.020Z,101151.72
2022-09-18T11:53:39.290Z,101161.63
2022-09-18T11:56:15.568Z,101156.81
2022-09-18T11:58:48.903Z,101165.03
2022-09-18T12:01:28.559Z,101164.00
2022-09-18T12:04:04.838Z,101163.00
2022-09-18T12:06:45.011Z,101164.75
2022-09-18T12:09:21.833Z,101163.53
2022-09-18T12:12:01.777Z,101160.28
2022-09-18T12:14:41.971Z,101167.31
2022-09-18T12:17:25.984Z,101159.91
2022-09-18T12:19:59.580Z,101155.91
2022-09-18T12:22:35.371Z,101166.50
2022-09-18T12:25:11.939Z,101153.78
2022-09-18T12:28:06.196Z,101156.28
2022-09-18T12:30:43.353Z,101154.44
2022-09-18T12:33:33.431Z,101158.69
2022-09-18T12:36:38.417Z,101147.84
2022-09-18T12:39:19.089Z,101149.75
2022-09-18T12:42:04.707Z,101146.00
2022-09-18T12:45:00.186Z,101141.41
2022-09-18T12:47:42.525Z,101145.00
2022-09-18T12:50:50.800Z,101149.94
2022-09-18T12:53:36.922Z,101146.28
2022-09-18T12:56:20.662Z,101135.25
2022-09-18T12:59:11.360Z,101144.63
2022-09-18T13:01:45.456Z,101146.13
2022-09-18T13:04:22.630Z,101152.47
2022-09-18T13:06:58.704Z,101144.56
2022-09-18T13:09:34.846Z,101155.16
2022-09-18T13:12:09.405Z,101150.56
2022-09-18T13:14:46.502Z,101155.56
2022-09-18T13:17:20.942Z,101160.72
2022-09-18T13:19:54.520Z,101216.53
2022-09-18T13:22:30.308Z,101205.00
2022-09-18T13:25:03.736Z,101184.94
2022-09-18T13:27:33.290Z,101179.44
2022-09-18T13:30:18.213Z,101172.88
2022-09-18T13:32:51.013Z,101171.47
2022-09-18T13:35:26.027Z,101168.91
2022-09-18T13:38:06.820Z,101161.72
2022-09-18T13:40:40.854Z,101157.97
2022-09-18T13:43:26.045Z,101158.59
2022-09-18T13:45:56.383Z,101152.94
2022-09-18T13:48:30.290Z,101141.81
2022-09-18T13:51:03.207Z,101134.28
2022-09-18T13:53:41.757Z,101143.81
2022-09-18T13:56:14.456Z,101150.97
2022-09-18T13:58:54.528Z,101141.41
2022-09-18T14:01:57.215Z,101148.78
2022-09-18T14:05:06.522Z,101128.91
2022-09-18T14:07:56.583Z,101138.72
2022-09-18T14:10:32.954Z,101127.81
2022-09-18T14:13:37.103Z,101135.47
2022-09-18T14:16:16.070Z,101138.66
2022-09-18T14:19:06.466Z,101125.44
2022-09-18T14:21:41.960Z,101134.38
2022-09-18T14:24:39.647Z,101124.91
2022-09-18T14:27:34.773Z,101125.19
2022-09-18T14:30:21.748Z,101121.16
2022-09-18T14:33:20.620Z,101114.31
2022-09-18T14:35:58.560Z,101110.44
2022-09-18T14:38:35.541Z,101110.84
2022-09-18T14:41:19.616Z,101112.50
2022-09-18T14:43:57.410Z,101109.84
2022-09-18T14:46:28.833Z,101104.63
2022-09-18T14:48:58.107Z,101103.88
2022-09-18T14:51:28.843Z,101095.44
2022-09-18T14:53:58.616Z,101115.03
2022-09-18T14:56:31.088Z,101119.41
2022-09-18T14:59:04.503Z,101109.19
2022-09-18T15:01:36.697Z,101093.38
2022-09-18T15:04:08.649Z,101109.94
2022-09-18T15:06:41.725Z,101117.69
2022-09-18T15:09:14.487Z,101104.84
2022-09-18T15:12:01.741Z,101105.38
2022-09-18T15:14:45.363Z,101109.09
2022-09-18T15:17:23.521Z,101104.38
2022-09-18T15:19:57.321Z,101095.38
2022-09-18T15:22:27.204Z,101097.72
2022-09-18T15:24:59.798Z,101100.38
2022-09-18T15:27:30.478Z,101095.44
2022-09-18T15:30:04.002Z,101096.78
2022-09-18T15:32:40.416Z,101107.28
2022-09-18T15:35:18.187Z,101111.94
2022-09-18T15:37:53.991Z,101128.03
2022-09-18T15:40:28.628Z,101118.16
2022-09-18T15:43:02.226Z,101104.84
2022-09-18T15:45:33.113Z,101108.81
2022-09-18T15:48:24.496Z,101131.03
2022-09-18T15:51:09.168Z,101129.19
2022-09-18T15:53:39.234Z,101137.22
2022-09-18T15:56:10.766Z,101123.69
2022-09-18T15:58:52.244Z,101136.56
2022-09-18T16:01:26.010Z,101131.94
2022-09-18T16:04:08.769Z,101134.84
2022-09-18T16:06:45.581Z,101129.47
2022-09-18T16:09:28.945Z,101115.81
2022-09-18T16:12:02.836Z,101108.81
2022-09-18T16:14:44.365Z,101111.09
2022-09-18T16:17:37.275Z,101125.75
2022-09-18T16:20:34.853Z,101113.75
2022-09-18T16:23:21.515Z,101115.28
2022-09-18T16:26:07.337Z,101114.03
2022-09-18T16:28:38.551Z,101121.53
2022-09-18T16:31:07.695Z,101148.91
2022-09-18T16:33:37.644Z,101152.91
2022-09-18T16:36:14.131Z,101156.81
2022-09-18T16:38:43.067Z,101158.06
2022-09-18T16:41:12.849Z,101160.00
2022-09-18T16:43:42.394Z,101161.25
2022-09-18T16:46:12.180Z,101153.63
2022-09-18T16:48:42.258Z,101155.16
2022-09-18T16:51:12.087Z,101176.84
2022-09-18T16:53:42.871Z,101199.44
2022-09-18T16:56:15.857Z,101199.66
2022-09-18T16:58:45.984Z,101196.06
2022-09-18T17:01:16.263Z,101198.38
2022-09-18T17:03:46.326Z,101194.81
2022-09-18T17:06:18.977Z,101203.91
2022-09-18T17:08:49.785Z,101190.06
2022-09-18T17:11:20.800Z,101195.69
2022-09-18T17:14:00.319Z,101190.94
2022-09-18T17:16:43.805Z,101170.56
2022-09-18T17:19:14.976Z,101162.38
2022-09-18T17:21:47.060Z,101161.34
2022-09-18T17:24:17.886Z,101164.09
2022-09-18T17:26:48.407Z,101167.28
2022-09-18T17:29:18.499Z,101165.78
2022-09-18T17:31:46.792Z,101174.28
2022-09-18T17:34:16.509Z,101171.25
2022-09-18T17:36:47.323Z,101190.84
2022-09-18T17:39:18.446Z,101177.38
2022-09-18T17:41:50.273Z,101185.25
2022-09-18T17:44:24.942Z,101194.69
2022-09-18T17:46:55.823Z,101181.47
2022-09-18T17:49:26.454Z,101177.72
2022-09-18T17:52:02.721Z,101187.81
2022-09-18T17:54:35.802Z,101196.38
2022-09-18T17:57:11.379Z,101230.88
2022-09-18T17:59:40.042Z,101243.03
2022-09-18T18:02:09.584Z,101249.00
2022-09-18T18:04:38.861Z,101231.41
2022-09-18T18:07:09.194Z,101216.19
2022-09-18T18:09:38.968Z,101204.25
2022-09-18T18:12:07.523Z,101208.69
2022-09-18T18:14:37.192Z,101206.66
2022-09-18T18:17:08.822Z,101208.84
2022-09-18T18:19:37.848Z,101197.06
2022-09-18T18:22:05.981Z,101194.69
2022-09-18T18:24:35.734Z,101212.28
2022-09-18T18:27:05.166Z,101218.78
2022-09-18T18:29:33.674Z,101225.78
2022-09-18T18:32:02.758Z,101242.00
2022-09-18T18:34:31.771Z,101234.84
2022-09-18T18:37:00.998Z,101242.53
2022-09-18T18:39:29.188Z,101233.13
2022-09-18T18:42:00.048Z,101256.56
2022-09-18T18:44:29.055Z,101255.00
2022-09-18T18:46:57.592Z,101263.69
2022-09-18T18:49:27.125Z,101268.50
2022-09-18T18:51:56.274Z,101269.84
2022-09-18T18:54:25.072Z,101278.06
2022-09-18T18:56:53.968Z,101284.91
2022-09-18T18:59:26.030Z,101291.91
2022-09-18T19:01:57.771Z,101291.06
2022-09-18T19:04:27.990Z,101297.16
2022-09-18T19:06:56.988Z,101278.38
2022-09-18T19:09:30.085Z,101278.22
2022-09-18T19:11:58.398Z,101287.97
2022-09-18T19:14:31.603Z,101274.28
2022-09-18T19:17:01.540Z,101264.91
2022-09-18T19:19:30.847Z,101260.13
2022-09-18T19:22:00.140Z,101282.00
2022-09-18T19:24:30.936Z,101278.56
2022-09-18T19:27:01.407Z,101279.06
2022-09-18T19:29:31.543Z,101273.63
2022-09-18T19:32:00.633Z,101287.78
2022-09-18T19:34:29.432Z,101300.28
2022-09-18T19:36:59.887Z,101300.09
2022-09-18T19:39:28.285Z,101294.28
2022-09-18T19:42:00.287Z,101293.09
2022-09-18T19:44:37.276Z,101291.91
2022-09-18T19:47:08.654Z,101301.31
2022-09-18T19:49:40.823Z,101302.69
2022-09-18T19:52:18.070Z,101297.22
2022-09-18T19:54:46.044Z,101296.34
2022-09-18T19:57:14.790Z,101306.97
2022-09-18T19:59:45.150Z,101319.94
2022-09-18T20:02:15.127Z,101325.59
2022-09-18T20:04:44.307Z,101322.84
2022-09-18T20:07:14.031Z,101326.16
2022-09-18T20:09:42.702Z,101318.59
2022-09-18T20:12:11.249Z,101338.56
2022-09-18T20:14:39.288Z,101326.09
2022-09-18T20:17:10.178Z,101339.13
2022-09-18T20:19:39.004Z,101333.66
2022-09-18T20:22:07.030Z,101339.63
2022-09-18T20:24:36.527Z,101347.00
2022-09-18T20:27:05.352Z,101354.16
2022-09-18T20:29:36.560Z,101349.19
2022-09-18T20:32:05.351Z,101353.31
2022-09-18T20:34:35.624Z,101351.94
2022-09-18T20:37:06.604Z,101354.50
2022-09-18T20:39:35.353Z,101346.09
2022-09-18T20:42:03.671Z,101344.75
2022-09-18T20:44:35.100Z,101351.22
2022-09-18T20:47:05.673Z,101341.31
2022-09-18T20:49:37.210Z,101347.97
2022-09-18T20:52:06.530Z,101349.69
2022-09-18T20:54:34.809Z,101350.38
2022-09-18T20:57:04.602Z,101351.06
2022-09-18T20:59:33.589Z,101357.38
2022-09-18T21:02:02.402Z,101368.34
2022-09-18T21:04:31.751Z,101366.13
2022-09-18T21:07:01.882Z,101369.53
2022-09-18T21:09:32.023Z,101387.66
2022-09-18T21:12:01.381Z,101389.34
2022-09-18T21:14:29.551Z,101392.09
2022-09-18T21:16:57.782Z,101376.19
2022-09-18T21:19:28.172Z,101389.69
2022-09-18T21:21:56.585Z,101369.06
2022-09-18T21:24:27.799Z,101364.03
2022-09-18T21:26:55.916Z,101373.97
2022-09-18T21:29:26.100Z,101367.13
2022-09-18T21:31:57.321Z,101370.34
2022-09-18T21:34:27.739Z,101382.88
2022-09-18T21:36:58.796Z,101392.41
2022-09-18T21:39:29.716Z,101383.75
2022-09-18T21:41:59.529Z,101388.00
2022-09-18T21:44:30.705Z,101394.13
2022-09-18T21:47:02.525Z,101390.38
2022-09-18T21:49:31.969Z,101406.09
2022-09-18T21:52:01.705Z,101394.88
2022-09-18T21:54:34.540Z,101399.31
2022-09-18T21:57:04.825Z,101396.75
2022-09-18T21:59:37.077Z,101398.97
2022-09-18T22:02:08.843Z,101403.06
2022-09-18T22:04:38.994Z,101405.81
2022-09-18T22:07:08.185Z,101409.94
2022-09-18T22:09:38.294Z,101408.38
2022-09-18T22:12:07.801Z,101410.91
2022-09-18T22:14:38.339Z,101422.41
2022-09-18T22:17:09.485Z,101433.00
2022-09-18T22:19:41.518Z,101437.28
2022-09-18T22:22:12.389Z,101454.38
2022-09-18T22:24:43.633Z,101452.00
2022-09-18T22:27:13.372Z,101444.44
2022-09-18T22:29:44.005Z,101437.91
2022-09-18T22:32:12.133Z,101434.31
2022-09-18T22:34:41.716Z,101436.19
2022-09-18T22:37:13.310Z,101430.72
2022-09-18T22:39:44.472Z,101438.41
2022-09-18T22:42:15.857Z,101456.72
2022-09-18T22:44:44.702Z,101443.06
2022-09-18T22:47:15.735Z,101453.84
2022-09-18T22:49:44.628Z,101447.56
2022-09-18T22:52:15.067Z,101449.59
2022-09-18T22:54:47.211Z,101459.34
2022-09-18T22:57:16.949Z,101472.34
2022-09-18T22:59:47.646Z,101466.00
2022-09-18T23:02:16.344Z,101461.06
2022-09-18T23:04:47.511Z,101458.50
2022-09-18T23:07:18.169Z,101473.91
2022-09-18T23:09:53.229Z,101480.94
2022-09-18T23:12:22.499Z,101482.13
2022-09-18T23:14:51.208Z,101479.03
2022-09-18T23:17:19.331Z,101474.75
2022-09-18T23:19:47.575Z,101485.00
2022-09-18T23:22:16.426Z,101480.06
2022-09-18T23:24:49.263Z,101478.69
2022-09-18T23:27:18.485Z,101492.03
2022-09-18T23:29:48.281Z,101483.84
2022-09-18T23:32:16.925Z,101476.97
2022-09-18T23:34:47.512Z,101485.72
2022-09-18T23:37:18.993Z,101489.63
2022-09-18T23:39:48.964Z,101494.44
2022-09-18T23:42:18.479Z,101485.53
2022-09-18T23:44:48.469Z,101479.88
2022-09-18T23:47:18.179Z,101496.16
2022-09-18T23:49:46.978Z,101491.88
2022-09-18T23:52:16.754Z,101493.41
2022-09-18T23:54:45.938Z,101500.25
2022-09-18T23:57:18.514Z,101499.06
2022-09-18T23:59:53.746Z,101495.28
